This is the latest recevied weather packets stored in our database for station/object XW7RMR. If no packets are shown the sender has not sent any weather packets the latest 10 day(s).
| Time | Temp. | Humidity | Pressure | Rain* | Wind** | Luminosity | Snow |
|---|---|---|---|---|---|---|---|
| 1777237427 | 19.44° C | 40% | 1008.8 hPa | 0 mm | - | 798 W/m² | - |
| 1777237124 | 20° C | 38% | 1008.9 hPa | 0 mm | - | 802 W/m² | - |
| 1777236822 | 20° C | 37% | 1008.7 hPa | 0 mm | - | 807 W/m² | - |
| 1777236521 | 20.56° C | 38% | 1008.8 hPa | 0 mm | - | 812 W/m² | - |
| 1777236218 | 20.56° C | 38% | 1008.9 hPa | 0 mm | - | 813 W/m² | - |
| 1777235913 | 20° C | 38% | 1008.8 hPa | 0 mm | - | 818 W/m² | - |
| 1777235610 | 20° C | 39% | 1008.7 hPa | 0 mm | - | 819 W/m² | - |
| 1777235307 | 20.56° C | 37% | 1008.7 hPa | 0 mm | - | 820 W/m² | - |
| 1777235003 | 20° C | 40% | 1008.8 hPa | 0 mm | - | 822 W/m² | - |
| 1777234700 | 21.11° C | 37% | 1008.9 hPa | 0 mm | - | 822 W/m² | - |
| 1777234395 | 20° C | 38% | 1009 hPa | 0 mm | - | 823 W/m² | - |
| 1777234090 | 19.44° C | 37% | 1008.9 hPa | 0 mm | - | 822 W/m² | - |
| 1777233786 | 20° C | 38% | 1008.8 hPa | 0 mm | - | 822 W/m² | - |
| 1777233483 | 18.89° C | 40% | 1009.1 hPa | 0 mm | - | 820 W/m² | - |
| 1777233183 | 18.89° C | 39% | 1009 hPa | 0 mm | - | 817 W/m² | - |
| 1777232877 | 18.33° C | 41% | 1009.1 hPa | 0 mm | - | 815 W/m² | - |
| 1777232576 | 18.89° C | 41% | 1009 hPa | 0 mm | - | 812 W/m² | - |
| 1777232275 | 18.33° C | 40% | 1009.2 hPa | 0 mm | - | 808 W/m² | - |
| 1777231970 | 18.89° C | 41% | 1009.2 hPa | 0 mm | - | 805 W/m² | - |
| 1777231668 | 18.33° C | 41% | 1009 hPa | 0 mm | - | 799 W/m² | - |
| 1777231364 | 16.67° C | 44% | 1009.2 hPa | 0 mm | - | 794 W/m² | - |
| 1777231059 | 17.78° C | 42% | 1009.3 hPa | 0 mm | - | 790 W/m² | - |
| 1777230757 | 17.78° C | 45% | 1009.1 hPa | 0 mm | - | 784 W/m² | - |
| 1777230456 | 18.33° C | 41% | 1009.3 hPa | 0 mm | - | 777 W/m² | - |
| 1777230153 | 18.33° C | 43% | 1009.1 hPa | 0 mm | - | 770 W/m² | - |
* Rain latest hour (hover to see other rain measurements)
** Current wind speed in m/s (hover to see current wind gust speed)